Aérodrome :
LOGIN :

S'inscrire | Disclaimer

   EN    FR    IT 

 










Légende :    VFR   VFR Marginal   IFR   IFR Intensif   IFR Très Intensif
Visi : 
Plafond : 
>= 8 km
>= 3000ft
5 à 8 km
1000 à 3000 ft
1500m à 5 km
500 à 1000 ft
800 à 1500m
200 à 500 ft
< 800m
< 200 ft
Symboles :   Orages  Brouillard  Fortes neiges  Fortes précipitations  Vent > 20 kt
SIGMETs :   Divers  Orages  Givrage  Turbulence  Onde Orograph.  Cendres Volcan.







- Altitude de l'aérodrome : 142 ft
- Code IATA : ALC


LEAL - Alicante

DERNIER METAR :
  • 152100Z 24011KT CAVOK 16/08 Q1023 NOSIG

METARs EXPIRÉS :
  • 152030Z 26009KT 200V280 CAVOK 16/08 Q1023 NOSIG
  • 152000Z 26011KT 230V290 CAVOK 17/08 Q1023 NOSIG
  • 151930Z 27009KT CAVOK 17/08 Q1023 NOSIG
  • 151900Z 27009KT 230V300 CAVOK 17/08 Q1023 NOSIG
  • 151830Z 25007KT 220V280 CAVOK 17/08 Q1023 NOSIG

TAF TAF LEAL
Valide du 15 à 18h jusqu'au 16 à 18h UTC


151700Z 1518/1618 30010KT 9999 FEW050 TX21/1612Z TN10/1606Z
TEMPO 1602/1605 30015G25KT
TEMPO 1608/1613 24008KT
Pas de NOTAMs connus pour ce terrain.
1 SIGMET publié pour la FIR Barcelona (LECB) :
 
Onde orographique forte
LECB SIGMET 3 VALID 151800/152100 LEVA
LECB BARCELONA FIR/UIR SEV MTW FCST WI N4110 E00049 - N3956 W00036 - N3939 W00013 - N41 E00117 - N4110 E00049 SFC/FL350 STNR NC=



MET'MAP, la Météo Aéronautique d'un coup d'oeil ! - Copyright ORBIFLY Décembre 2007 - Disclaimer

ORBIFLY MET'MAP TEAM :

Programmation & Développement : Alexandra Zaïnal
Conception & Développement : Baudouin d'Aumeries
Co-Programmation & Développement : Marc-Olivier Méhu
Soutien technique & logistique : Manuel Goepfert

Contact : metmap@orbifly.com




SOURCES & CREDITS :

   NOAA